sensor_id;sensor_type;location;lat;lon;timestamp;P1;durP1;ratioP1;P2;durP2;ratioP2
12135;SDS011;6131;56.420;15.548;2022-12-26T00:01:44;21.57;;;8.63;;
12135;SDS011;6131;56.420;15.548;2022-12-26T00:04:11;27.80;;;9.27;;
12135;SDS011;6131;56.420;15.548;2022-12-26T00:06:37;22.50;;;9.07;;
12135;SDS011;6131;56.420;15.548;2022-12-26T00:09:03;21.43;;;8.40;;
12135;SDS011;6131;56.420;15.548;2022-12-26T00:11:30;23.17;;;8.43;;
12135;SDS011;6131;56.420;15.548;2022-12-26T00:13:57;24.87;;;9.33;;
12135;SDS011;6131;56.420;15.548;2022-12-26T00:16:23;20.70;;;8.67;;
12135;SDS011;6131;56.420;15.548;2022-12-26T00:18:50;20.10;;;8.73;;
12135;SDS011;6131;56.420;15.548;2022-12-26T00:21:17;24.23;;;9.03;;
12135;SDS011;6131;56.420;15.548;2022-12-26T00:23:43;20.10;;;8.63;;
12135;SDS011;6131;56.420;15.548;2022-12-26T00:26:11;23.83;;;9.10;;
12135;SDS011;6131;56.420;15.548;2022-12-26T00:28:37;17.80;;;8.50;;
12135;SDS011;6131;56.420;15.548;2022-12-26T00:31:04;26.67;;;9.80;;
12135;SDS011;6131;56.420;15.548;2022-12-26T00:33:32;21.67;;;9.07;;
12135;SDS011;6131;56.420;15.548;2022-12-26T00:36:09;24.47;;;10.00;;
12135;SDS011;6131;56.420;15.548;2022-12-26T00:38:37;20.47;;;9.40;;
12135;SDS011;6131;56.420;15.548;2022-12-26T00:41:03;30.27;;;10.60;;
12135;SDS011;6131;56.420;15.548;2022-12-26T00:43:29;22.83;;;10.90;;
12135;SDS011;6131;56.420;15.548;2022-12-26T00:45:55;26.47;;;10.67;;
12135;SDS011;6131;56.420;15.548;2022-12-26T00:48:22;25.37;;;11.07;;
12135;SDS011;6131;56.420;15.548;2022-12-26T00:50:48;27.90;;;10.33;;
12135;SDS011;6131;56.420;15.548;2022-12-26T00:53:14;23.57;;;12.20;;
12135;SDS011;6131;56.420;15.548;2022-12-26T00:55:40;32.07;;;12.50;;
12135;SDS011;6131;56.420;15.548;2022-12-26T00:58:06;30.47;;;12.57;;
12135;SDS011;6131;56.420;15.548;2022-12-26T01:00:32;34.30;;;12.97;;
12135;SDS011;6131;56.420;15.548;2022-12-26T01:02:58;34.30;;;12.33;;
12135;SDS011;6131;56.420;15.548;2022-12-26T01:05:24;35.90;;;13.73;;
12135;SDS011;6131;56.420;15.548;2022-12-26T01:07:50;35.77;;;13.70;;
12135;SDS011;6131;56.420;15.548;2022-12-26T01:10:16;38.60;;;13.37;;
12135;SDS011;6131;56.420;15.548;2022-12-26T01:12:42;41.53;;;13.37;;
12135;SDS011;6131;56.420;15.548;2022-12-26T01:15:08;32.90;;;13.87;;
12135;SDS011;6131;56.420;15.548;2022-12-26T01:17:34;37.57;;;14.40;;
12135;SDS011;6131;56.420;15.548;2022-12-26T01:20:00;42.77;;;14.17;;
12135;SDS011;6131;56.420;15.548;2022-12-26T01:22:26;44.73;;;15.07;;
12135;SDS011;6131;56.420;15.548;2022-12-26T01:24:53;39.17;;;14.03;;
12135;SDS011;6131;56.420;15.548;2022-12-26T01:27:19;51.57;;;15.43;;
12135;SDS011;6131;56.420;15.548;2022-12-26T01:29:45;40.23;;;14.87;;
12135;SDS011;6131;56.420;15.548;2022-12-26T01:32:11;42.77;;;14.53;;
12135;SDS011;6131;56.420;15.548;2022-12-26T01:34:37;48.97;;;15.57;;
12135;SDS011;6131;56.420;15.548;2022-12-26T01:37:03;43.80;;;15.93;;
12135;SDS011;6131;56.420;15.548;2022-12-26T01:39:29;40.40;;;15.47;;
12135;SDS011;6131;56.420;15.548;2022-12-26T01:41:55;41.73;;;16.30;;
12135;SDS011;6131;56.420;15.548;2022-12-26T01:47:06;41.93;;;15.43;;
12135;SDS011;6131;56.420;15.548;2022-12-26T01:49:36;49.30;;;15.63;;
12135;SDS011;6131;56.420;15.548;2022-12-26T01:52:07;53.97;;;16.50;;
12135;SDS011;6131;56.420;15.548;2022-12-26T01:54:34;54.63;;;16.50;;
12135;SDS011;6131;56.420;15.548;2022-12-26T01:57:03;52.13;;;17.57;;
12135;SDS011;6131;56.420;15.548;2022-12-26T01:59:29;59.37;;;17.57;;
12135;SDS011;6131;56.420;15.548;2022-12-26T02:01:57;56.60;;;17.97;;
12135;SDS011;6131;56.420;15.548;2022-12-26T02:04:25;55.17;;;16.87;;
12135;SDS011;6131;56.420;15.548;2022-12-26T02:07:11;56.60;;;17.23;;
12135;SDS011;6131;56.420;15.548;2022-12-26T02:09:38;57.13;;;18.20;;
12135;SDS011;6131;56.420;15.548;2022-12-26T02:12:08;56.43;;;16.83;;
12135;SDS011;6131;56.420;15.548;2022-12-26T02:14:36;44.40;;;15.53;;
12135;SDS011;6131;56.420;15.548;2022-12-26T02:17:03;45.10;;;16.33;;
12135;SDS011;6131;56.420;15.548;2022-12-26T02:24:53;41.47;;;14.67;;
12135;SDS011;6131;56.420;15.548;2022-12-26T02:28:07;49.33;;;15.97;;
12135;SDS011;6131;56.420;15.548;2022-12-26T02:38:09;42.30;;;14.83;;
12135;SDS011;6131;56.420;15.548;2022-12-26T02:43:31;51.07;;;15.60;;
12135;SDS011;6131;56.420;15.548;2022-12-26T02:49:27;31.97;;;13.83;;
12135;SDS011;6131;56.420;15.548;2022-12-26T02:52:17;48.00;;;14.47;;
12135;SDS011;6131;56.420;15.548;2022-12-26T02:55:10;40.53;;;14.23;;
12135;SDS011;6131;56.420;15.548;2022-12-26T02:57:58;44.03;;;15.03;;
12135;SDS011;6131;56.420;15.548;2022-12-26T03:00:45;37.03;;;14.13;;
12135;SDS011;6131;56.420;15.548;2022-12-26T03:03:32;46.63;;;14.70;;
12135;SDS011;6131;56.420;15.548;2022-12-26T03:06:19;37.70;;;13.20;;
12135;SDS011;6131;56.420;15.548;2022-12-26T03:09:10;33.67;;;13.47;;
12135;SDS011;6131;56.420;15.548;2022-12-26T03:11:56;36.40;;;12.90;;
12135;SDS011;6131;56.420;15.548;2022-12-26T03:17:42;39.33;;;13.40;;
12135;SDS011;6131;56.420;15.548;2022-12-26T03:20:28;39.23;;;13.37;;
12135;SDS011;6131;56.420;15.548;2022-12-26T03:23:11;32.33;;;11.97;;
12135;SDS011;6131;56.420;15.548;2022-12-26T03:25:41;31.17;;;11.60;;
12135;SDS011;6131;56.420;15.548;2022-12-26T03:28:28;39.07;;;12.93;;
12135;SDS011;6131;56.420;15.548;2022-12-26T03:30:55;35.23;;;12.37;;
12135;SDS011;6131;56.420;15.548;2022-12-26T03:36:10;40.50;;;14.33;;
12135;SDS011;6131;56.420;15.548;2022-12-26T03:42:07;51.33;;;14.33;;
12135;SDS011;6131;56.420;15.548;2022-12-26T03:44:31;54.50;;;15.03;;
12135;SDS011;6131;56.420;15.548;2022-12-26T03:50:11;47.40;;;15.50;;
12135;SDS011;6131;56.420;15.548;2022-12-26T03:55:51;71.60;;;17.37;;
12135;SDS011;6131;56.420;15.548;2022-12-26T04:01:32;60.93;;;17.83;;
12135;SDS011;6131;56.420;15.548;2022-12-26T04:04:20;61.53;;;17.20;;
12135;SDS011;6131;56.420;15.548;2022-12-26T04:10:34;55.60;;;17.50;;
12135;SDS011;6131;56.420;15.548;2022-12-26T04:12:59;50.90;;;16.90;;
12135;SDS011;6131;56.420;15.548;2022-12-26T04:15:50;62.60;;;18.50;;
12135;SDS011;6131;56.420;15.548;2022-12-26T04:18:44;58.20;;;18.33;;
12135;SDS011;6131;56.420;15.548;2022-12-26T04:21:30;56.83;;;16.37;;
12135;SDS011;6131;56.420;15.548;2022-12-26T04:24:19;67.77;;;18.73;;
12135;SDS011;6131;56.420;15.548;2022-12-26T04:27:06;60.57;;;17.67;;
12135;SDS011;6131;56.420;15.548;2022-12-26T04:29:51;59.17;;;16.63;;
12135;SDS011;6131;56.420;15.548;2022-12-26T04:32:41;57.33;;;18.00;;
12135;SDS011;6131;56.420;15.548;2022-12-26T04:35:28;57.23;;;18.20;;
12135;SDS011;6131;56.420;15.548;2022-12-26T04:38:15;82.33;;;19.23;;
12135;SDS011;6131;56.420;15.548;2022-12-26T04:41:00;57.50;;;18.17;;
12135;SDS011;6131;56.420;15.548;2022-12-26T04:43:45;65.77;;;18.50;;
12135;SDS011;6131;56.420;15.548;2022-12-26T04:46:31;62.03;;;18.37;;
12135;SDS011;6131;56.420;15.548;2022-12-26T04:48:58;63.33;;;19.63;;
12135;SDS011;6131;56.420;15.548;2022-12-26T04:51:43;67.50;;;18.03;;
12135;SDS011;6131;56.420;15.548;2022-12-26T04:54:09;63.30;;;18.10;;
12135;SDS011;6131;56.420;15.548;2022-12-26T04:56:35;67.30;;;19.63;;
12135;SDS011;6131;56.420;15.548;2022-12-26T04:59:01;77.97;;;19.57;;
12135;SDS011;6131;56.420;15.548;2022-12-26T05:01:27;85.93;;;20.70;;
12135;SDS011;6131;56.420;15.548;2022-12-26T05:04:12;82.37;;;20.50;;
12135;SDS011;6131;56.420;15.548;2022-12-26T05:06:58;61.67;;;18.10;;
12135;SDS011;6131;56.420;15.548;2022-12-26T05:09:44;52.03;;;17.00;;
12135;SDS011;6131;56.420;15.548;2022-12-26T05:12:10;62.93;;;18.57;;
12135;SDS011;6131;56.420;15.548;2022-12-26T05:14:36;71.40;;;17.07;;
12135;SDS011;6131;56.420;15.548;2022-12-26T05:17:02;62.30;;;18.67;;
12135;SDS011;6131;56.420;15.548;2022-12-26T05:19:47;60.20;;;17.20;;
12135;SDS011;6131;56.420;15.548;2022-12-26T05:22:32;62.90;;;18.23;;
12135;SDS011;6131;56.420;15.548;2022-12-26T05:25:19;57.47;;;18.17;;
12135;SDS011;6131;56.420;15.548;2022-12-26T05:28:09;69.47;;;18.63;;
12135;SDS011;6131;56.420;15.548;2022-12-26T05:30:54;81.27;;;19.47;;
12135;SDS011;6131;56.420;15.548;2022-12-26T05:33:20;71.43;;;19.93;;
12135;SDS011;6131;56.420;15.548;2022-12-26T05:36:05;80.90;;;19.53;;
12135;SDS011;6131;56.420;15.548;2022-12-26T05:38:34;100.10;;;21.60;;
12135;SDS011;6131;56.420;15.548;2022-12-26T05:41:02;69.13;;;19.07;;
12135;SDS011;6131;56.420;15.548;2022-12-26T05:43:28;70.37;;;18.07;;
12135;SDS011;6131;56.420;15.548;2022-12-26T05:45:54;68.80;;;19.30;;
12135;SDS011;6131;56.420;15.548;2022-12-26T05:48:20;62.23;;;18.40;;
12135;SDS011;6131;56.420;15.548;2022-12-26T05:50:46;55.47;;;17.50;;
12135;SDS011;6131;56.420;15.548;2022-12-26T05:53:12;56.30;;;17.30;;
12135;SDS011;6131;56.420;15.548;2022-12-26T05:55:38;52.27;;;16.90;;
12135;SDS011;6131;56.420;15.548;2022-12-26T05:58:04;60.23;;;16.83;;
12135;SDS011;6131;56.420;15.548;2022-12-26T06:00:30;60.97;;;17.67;;
12135;SDS011;6131;56.420;15.548;2022-12-26T06:02:59;46.90;;;17.23;;
12135;SDS011;6131;56.420;15.548;2022-12-26T06:05:26;59.30;;;17.70;;
12135;SDS011;6131;56.420;15.548;2022-12-26T06:07:52;54.73;;;16.10;;
12135;SDS011;6131;56.420;15.548;2022-12-26T06:10:18;52.37;;;17.00;;
12135;SDS011;6131;56.420;15.548;2022-12-26T06:12:44;49.37;;;17.97;;
12135;SDS011;6131;56.420;15.548;2022-12-26T06:15:10;54.83;;;16.33;;
12135;SDS011;6131;56.420;15.548;2022-12-26T06:17:37;53.73;;;16.37;;
12135;SDS011;6131;56.420;15.548;2022-12-26T06:20:03;49.83;;;16.17;;
12135;SDS011;6131;56.420;15.548;2022-12-26T06:22:29;41.30;;;15.60;;
12135;SDS011;6131;56.420;15.548;2022-12-26T06:24:56;45.37;;;16.17;;
12135;SDS011;6131;56.420;15.548;2022-12-26T06:27:22;45.53;;;16.67;;
12135;SDS011;6131;56.420;15.548;2022-12-26T06:29:48;42.00;;;16.37;;
12135;SDS011;6131;56.420;15.548;2022-12-26T06:32:14;47.63;;;16.67;;
12135;SDS011;6131;56.420;15.548;2022-12-26T06:34:40;44.00;;;16.57;;
12135;SDS011;6131;56.420;15.548;2022-12-26T06:37:06;54.87;;;18.90;;
12135;SDS011;6131;56.420;15.548;2022-12-26T06:39:32;48.03;;;16.33;;
12135;SDS011;6131;56.420;15.548;2022-12-26T06:41:58;48.27;;;17.40;;
12135;SDS011;6131;56.420;15.548;2022-12-26T06:44:24;51.97;;;18.00;;
12135;SDS011;6131;56.420;15.548;2022-12-26T06:46:50;44.00;;;17.47;;
12135;SDS011;6131;56.420;15.548;2022-12-26T06:49:16;50.10;;;17.77;;
12135;SDS011;6131;56.420;15.548;2022-12-26T06:51:42;48.33;;;16.77;;
12135;SDS011;6131;56.420;15.548;2022-12-26T06:54:11;40.70;;;16.00;;
12135;SDS011;6131;56.420;15.548;2022-12-26T06:56:38;47.63;;;16.63;;
12135;SDS011;6131;56.420;15.548;2022-12-26T06:59:04;44.30;;;17.43;;
12135;SDS011;6131;56.420;15.548;2022-12-26T07:01:31;62.25;;;22.30;;
12135;SDS011;6131;56.420;15.548;2022-12-26T07:03:58;51.27;;;17.60;;
12135;SDS011;6131;56.420;15.548;2022-12-26T07:08:51;45.43;;;17.73;;
12135;SDS011;6131;56.420;15.548;2022-12-26T07:11:21;43.07;;;16.63;;
12135;SDS011;6131;56.420;15.548;2022-12-26T07:13:48;49.77;;;16.97;;
12135;SDS011;6131;56.420;15.548;2022-12-26T07:16:14;45.10;;;17.83;;
12135;SDS011;6131;56.420;15.548;2022-12-26T07:18:40;51.13;;;18.83;;
12135;SDS011;6131;56.420;15.548;2022-12-26T07:21:06;50.60;;;17.97;;
12135;SDS011;6131;56.420;15.548;2022-12-26T07:23:32;43.47;;;17.70;;
12135;SDS011;6131;56.420;15.548;2022-12-26T07:25:58;46.70;;;18.20;;
12135;SDS011;6131;56.420;15.548;2022-12-26T07:28:25;44.47;;;17.80;;
12135;SDS011;6131;56.420;15.548;2022-12-26T07:30:51;45.93;;;18.10;;
12135;SDS011;6131;56.420;15.548;2022-12-26T07:33:17;42.77;;;16.80;;
12135;SDS011;6131;56.420;15.548;2022-12-26T07:35:43;39.37;;;16.67;;
12135;SDS011;6131;56.420;15.548;2022-12-26T07:38:10;44.03;;;16.80;;
12135;SDS011;6131;56.420;15.548;2022-12-26T07:40:36;37.83;;;15.63;;
12135;SDS011;6131;56.420;15.548;2022-12-26T07:43:02;37.60;;;15.50;;
12135;SDS011;6131;56.420;15.548;2022-12-26T07:45:28;43.00;;;15.40;;
12135;SDS011;6131;56.420;15.548;2022-12-26T07:47:55;32.87;;;13.77;;
12135;SDS011;6131;56.420;15.548;2022-12-26T07:50:22;36.47;;;14.33;;
12135;SDS011;6131;56.420;15.548;2022-12-26T07:52:48;27.17;;;13.17;;
12135;SDS011;6131;56.420;15.548;2022-12-26T07:55:14;27.63;;;13.00;;
12135;SDS011;6131;56.420;15.548;2022-12-26T07:57:40;30.53;;;13.00;;
12135;SDS011;6131;56.420;15.548;2022-12-26T08:00:06;28.87;;;13.73;;
12135;SDS011;6131;56.420;15.548;2022-12-26T08:02:32;30.43;;;12.47;;
12135;SDS011;6131;56.420;15.548;2022-12-26T08:04:58;26.80;;;11.80;;
12135;SDS011;6131;56.420;15.548;2022-12-26T08:07:24;28.93;;;12.03;;
12135;SDS011;6131;56.420;15.548;2022-12-26T08:09:50;29.47;;;12.50;;
12135;SDS011;6131;56.420;15.548;2022-12-26T08:12:16;30.87;;;12.33;;
12135;SDS011;6131;56.420;15.548;2022-12-26T08:14:45;27.63;;;12.07;;
12135;SDS011;6131;56.420;15.548;2022-12-26T08:17:11;26.83;;;11.17;;
12135;SDS011;6131;56.420;15.548;2022-12-26T08:19:38;23.23;;;10.57;;
12135;SDS011;6131;56.420;15.548;2022-12-26T08:22:04;21.90;;;10.60;;
12135;SDS011;6131;56.420;15.548;2022-12-26T08:24:30;31.70;;;15.03;;
12135;SDS011;6131;56.420;15.548;2022-12-26T08:26:56;23.60;;;11.77;;
12135;SDS011;6131;56.420;15.548;2022-12-26T08:29:22;25.97;;;11.67;;
12135;SDS011;6131;56.420;15.548;2022-12-26T08:31:47;27.27;;;11.47;;
12135;SDS011;6131;56.420;15.548;2022-12-26T08:34:14;24.50;;;11.00;;
12135;SDS011;6131;56.420;15.548;2022-12-26T08:36:40;26.17;;;13.10;;
12135;SDS011;6131;56.420;15.548;2022-12-26T08:39:06;30.47;;;13.33;;
12135;SDS011;6131;56.420;15.548;2022-12-26T08:41:32;24.50;;;12.83;;
12135;SDS011;6131;56.420;15.548;2022-12-26T08:43:58;28.23;;;13.53;;
12135;SDS011;6131;56.420;15.548;2022-12-26T08:46:24;28.50;;;13.20;;
12135;SDS011;6131;56.420;15.548;2022-12-26T08:48:50;35.60;;;13.90;;
12135;SDS011;6131;56.420;15.548;2022-12-26T08:51:20;31.80;;;13.20;;
12135;SDS011;6131;56.420;15.548;2022-12-26T08:53:46;34.57;;;16.17;;
12135;SDS011;6131;56.420;15.548;2022-12-26T08:56:14;26.70;;;12.47;;
12135;SDS011;6131;56.420;15.548;2022-12-26T08:58:40;26.50;;;12.30;;
12135;SDS011;6131;56.420;15.548;2022-12-26T09:03:32;23.07;;;11.00;;
12135;SDS011;6131;56.420;15.548;2022-12-26T09:05:59;28.43;;;12.17;;
12135;SDS011;6131;56.420;15.548;2022-12-26T09:08:25;21.10;;;10.87;;
12135;SDS011;6131;56.420;15.548;2022-12-26T09:10:51;22.80;;;11.53;;
12135;SDS011;6131;56.420;15.548;2022-12-26T09:13:17;22.30;;;10.30;;
12135;SDS011;6131;56.420;15.548;2022-12-26T09:15:44;23.80;;;10.80;;
12135;SDS011;6131;56.420;15.548;2022-12-26T09:18:10;22.60;;;10.80;;
12135;SDS011;6131;56.420;15.548;2022-12-26T09:20:36;23.47;;;10.67;;
12135;SDS011;6131;56.420;15.548;2022-12-26T09:23:02;22.47;;;10.30;;
12135;SDS011;6131;56.420;15.548;2022-12-26T09:25:28;19.43;;;9.73;;
12135;SDS011;6131;56.420;15.548;2022-12-26T09:27:54;19.37;;;9.73;;
12135;SDS011;6131;56.420;15.548;2022-12-26T09:30:20;24.13;;;9.97;;
12135;SDS011;6131;56.420;15.548;2022-12-26T09:32:47;17.57;;;8.80;;
12135;SDS011;6131;56.420;15.548;2022-12-26T09:35:13;18.33;;;8.33;;
12135;SDS011;6131;56.420;15.548;2022-12-26T09:37:39;18.10;;;7.93;;
12135;SDS011;6131;56.420;15.548;2022-12-26T09:40:05;18.70;;;7.70;;
12135;SDS011;6131;56.420;15.548;2022-12-26T09:48:20;12.10;;;6.17;;
12135;SDS011;6131;56.420;15.548;2022-12-26T09:50:49;13.90;;;5.93;;
12135;SDS011;6131;56.420;15.548;2022-12-26T09:53:18;14.70;;;6.57;;
12135;SDS011;6131;56.420;15.548;2022-12-26T09:55:57;9.67;;;6.50;;
12135;SDS011;6131;56.420;15.548;2022-12-26T10:03:45;13.97;;;5.80;;
12135;SDS011;6131;56.420;15.548;2022-12-26T10:06:15;10.70;;;5.57;;
12135;SDS011;6131;56.420;15.548;2022-12-26T10:08:45;9.60;;;5.33;;
12135;SDS011;6131;56.420;15.548;2022-12-26T10:11:20;10.20;;;5.17;;
12135;SDS011;6131;56.420;15.548;2022-12-26T10:13:50;9.37;;;5.20;;
12135;SDS011;6131;56.420;15.548;2022-12-26T10:21:41;10.53;;;5.00;;
12135;SDS011;6131;56.420;15.548;2022-12-26T10:24:13;11.57;;;5.23;;
12135;SDS011;6131;56.420;15.548;2022-12-26T10:26:41;9.33;;;5.07;;
12135;SDS011;6131;56.420;15.548;2022-12-26T10:31:55;10.07;;;5.10;;
12135;SDS011;6131;56.420;15.548;2022-12-26T10:37:09;13.37;;;6.30;;
12135;SDS011;6131;56.420;15.548;2022-12-26T10:39:55;9.27;;;5.47;;
12135;SDS011;6131;56.420;15.548;2022-12-26T10:42:28;9.97;;;5.43;;
12135;SDS011;6131;56.420;15.548;2022-12-26T10:44:54;8.20;;;4.70;;
12135;SDS011;6131;56.420;15.548;2022-12-26T10:47:22;7.63;;;4.50;;
12135;SDS011;6131;56.420;15.548;2022-12-26T10:49:49;11.23;;;5.00;;
12135;SDS011;6131;56.420;15.548;2022-12-26T10:52:16;8.00;;;4.63;;
12135;SDS011;6131;56.420;15.548;2022-12-26T10:54:44;9.40;;;4.60;;
12135;SDS011;6131;56.420;15.548;2022-12-26T10:57:10;11.60;;;4.40;;
12135;SDS011;6131;56.420;15.548;2022-12-26T10:59:43;10.70;;;4.63;;
12135;SDS011;6131;56.420;15.548;2022-12-26T11:02:12;9.03;;;4.10;;
12135;SDS011;6131;56.420;15.548;2022-12-26T11:04:38;11.13;;;4.63;;
12135;SDS011;6131;56.420;15.548;2022-12-26T11:07:20;7.33;;;3.97;;
12135;SDS011;6131;56.420;15.548;2022-12-26T11:09:48;13.07;;;4.10;;
12135;SDS011;6131;56.420;15.548;2022-12-26T11:12:22;7.20;;;3.30;;
12135;SDS011;6131;56.420;15.548;2022-12-26T11:14:49;7.53;;;3.57;;
12135;SDS011;6131;56.420;15.548;2022-12-26T11:17:26;4.80;;;3.47;;
12135;SDS011;6131;56.420;15.548;2022-12-26T11:20:20;6.87;;;3.20;;
12135;SDS011;6131;56.420;15.548;2022-12-26T11:22:47;6.93;;;3.10;;
12135;SDS011;6131;56.420;15.548;2022-12-26T11:25:26;5.53;;;3.30;;
12135;SDS011;6131;56.420;15.548;2022-12-26T11:27:56;6.40;;;3.57;;
12135;SDS011;6131;56.420;15.548;2022-12-26T11:35:44;5.33;;;2.60;;
12135;SDS011;6131;56.420;15.548;2022-12-26T11:38:12;5.57;;;2.70;;
12135;SDS011;6131;56.420;15.548;2022-12-26T11:40:58;3.43;;;2.13;;
12135;SDS011;6131;56.420;15.548;2022-12-26T11:43:43;5.70;;;2.77;;
12135;SDS011;6131;56.420;15.548;2022-12-26T11:46:09;3.37;;;2.33;;
12135;SDS011;6131;56.420;15.548;2022-12-26T11:48:36;3.47;;;2.40;;
12135;SDS011;6131;56.420;15.548;2022-12-26T11:51:03;4.47;;;2.50;;
12135;SDS011;6131;56.420;15.548;2022-12-26T11:53:29;6.23;;;2.70;;
12135;SDS011;6131;56.420;15.548;2022-12-26T11:55:57;3.97;;;2.47;;
12135;SDS011;6131;56.420;15.548;2022-12-26T11:58:24;3.73;;;2.30;;
12135;SDS011;6131;56.420;15.548;2022-12-26T12:03:44;4.33;;;2.80;;
12135;SDS011;6131;56.420;15.548;2022-12-26T12:08:57;3.63;;;2.20;;
12135;SDS011;6131;56.420;15.548;2022-12-26T12:11:28;6.47;;;2.40;;
12135;SDS011;6131;56.420;15.548;2022-12-26T12:16:58;5.97;;;2.40;;
12135;SDS011;6131;56.420;15.548;2022-12-26T12:19:27;3.30;;;1.77;;
12135;SDS011;6131;56.420;15.548;2022-12-26T12:27:20;3.63;;;2.37;;
12135;SDS011;6131;56.420;15.548;2022-12-26T12:40:02;3.40;;;2.20;;
12135;SDS011;6131;56.420;15.548;2022-12-26T12:42:34;3.03;;;2.00;;
12135;SDS011;6131;56.420;15.548;2022-12-26T12:47:35;3.47;;;2.13;;
12135;SDS011;6131;56.420;15.548;2022-12-26T12:55:25;5.30;;;2.30;;
12135;SDS011;6131;56.420;15.548;2022-12-26T12:58:27;4.17;;;2.40;;
12135;SDS011;6131;56.420;15.548;2022-12-26T13:00:53;6.43;;;2.60;;
12135;SDS011;6131;56.420;15.548;2022-12-26T13:06:33;4.03;;;2.00;;
12135;SDS011;6131;56.420;15.548;2022-12-26T13:08:41;4.20;;;2.57;;
12135;SDS011;6131;56.420;15.548;2022-12-26T13:11:11;5.40;;;2.27;;
12135;SDS011;6131;56.420;15.548;2022-12-26T13:13:42;5.03;;;2.90;;
12135;SDS011;6131;56.420;15.548;2022-12-26T13:16:11;3.37;;;2.20;;
12135;SDS011;6131;56.420;15.548;2022-12-26T13:18:39;6.30;;;3.90;;
12135;SDS011;6131;56.420;15.548;2022-12-26T13:21:07;6.40;;;3.60;;
12135;SDS011;6131;56.420;15.548;2022-12-26T13:23:41;4.30;;;2.40;;
12135;SDS011;6131;56.420;15.548;2022-12-26T13:29:17;5.60;;;2.57;;
12135;SDS011;6131;56.420;15.548;2022-12-26T13:31:44;2.30;;;1.90;;
12135;SDS011;6131;56.420;15.548;2022-12-26T13:34:15;4.30;;;2.60;;
12135;SDS011;6131;56.420;15.548;2022-12-26T13:36:43;5.37;;;2.67;;
12135;SDS011;6131;56.420;15.548;2022-12-26T13:41:35;4.57;;;2.70;;
12135;SDS011;6131;56.420;15.548;2022-12-26T14:05:14;3.23;;;2.47;;
12135;SDS011;6131;56.420;15.548;2022-12-26T14:07:53;5.90;;;2.73;;
12135;SDS011;6131;56.420;15.548;2022-12-26T14:18:15;6.30;;;2.23;;
12135;SDS011;6131;56.420;15.548;2022-12-26T14:26:21;4.63;;;2.67;;
12135;SDS011;6131;56.420;15.548;2022-12-26T14:31:46;6.07;;;2.90;;
12135;SDS011;6131;56.420;15.548;2022-12-26T14:34:25;4.03;;;2.83;;
12135;SDS011;6131;56.420;15.548;2022-12-26T14:44:51;34.57;;;5.17;;
12135;SDS011;6131;56.420;15.548;2022-12-26T14:47:37;8.20;;;4.43;;
12135;SDS011;6131;56.420;15.548;2022-12-26T14:52:49;4.70;;;2.97;;
12135;SDS011;6131;56.420;15.548;2022-12-26T15:00:45;40.50;;;5.07;;
12135;SDS011;6131;56.420;15.548;2022-12-26T15:05:43;4.50;;;1.60;;
12135;SDS011;6131;56.420;15.548;2022-12-26T15:08:17;1.73;;;1.50;;
12135;SDS011;6131;56.420;15.548;2022-12-26T15:10:53;26.57;;;2.83;;
12135;SDS011;6131;56.420;15.548;2022-12-26T15:34:14;56.40;;;4.50;;
12135;SDS011;6131;56.420;15.548;2022-12-26T15:36:51;53.03;;;4.60;;
12135;SDS011;6131;56.420;15.548;2022-12-26T15:44:44;49.53;;;4.03;;
12135;SDS011;6131;56.420;15.548;2022-12-26T15:47:24;67.37;;;5.60;;
12135;SDS011;6131;56.420;15.548;2022-12-26T15:52:35;27.33;;;4.50;;
12135;SDS011;6131;56.420;15.548;2022-12-26T15:57:47;12.33;;;3.40;;
12135;SDS011;6131;56.420;15.548;2022-12-26T16:00:16;30.60;;;4.40;;
12135;SDS011;6131;56.420;15.548;2022-12-26T16:02:46;50.33;;;6.80;;
12135;SDS011;6131;56.420;15.548;2022-12-26T16:10:37;29.77;;;3.70;;
12135;SDS011;6131;56.420;15.548;2022-12-26T16:15:50;17.87;;;3.83;;
12135;SDS011;6131;56.420;15.548;2022-12-26T16:20:43;14.10;;;2.40;;
12135;SDS011;6131;56.420;15.548;2022-12-26T16:23:29;29.80;;;4.07;;
12135;SDS011;6131;56.420;15.548;2022-12-26T16:25:57;41.70;;;4.53;;
12135;SDS011;6131;56.420;15.548;2022-12-26T16:30:56;45.00;;;4.37;;
12135;SDS011;6131;56.420;15.548;2022-12-26T16:33:23;28.83;;;3.23;;
12135;SDS011;6131;56.420;15.548;2022-12-26T16:35:49;21.07;;;3.77;;
12135;SDS011;6131;56.420;15.548;2022-12-26T16:38:17;19.13;;;2.80;;
12135;SDS011;6131;56.420;15.548;2022-12-26T16:40:48;21.43;;;3.00;;
12135;SDS011;6131;56.420;15.548;2022-12-26T16:45:44;33.23;;;3.67;;
12135;SDS011;6131;56.420;15.548;2022-12-26T16:48:12;20.07;;;3.27;;
12135;SDS011;6131;56.420;15.548;2022-12-26T16:50:50;8.00;;;2.70;;
12135;SDS011;6131;56.420;15.548;2022-12-26T16:53:17;19.93;;;4.53;;
12135;SDS011;6131;56.420;15.548;2022-12-26T16:58:22;11.37;;;2.73;;
12135;SDS011;6131;56.420;15.548;2022-12-26T17:01:00;10.53;;;2.50;;
12135;SDS011;6131;56.420;15.548;2022-12-26T17:06:06;12.67;;;2.83;;
12135;SDS011;6131;56.420;15.548;2022-12-26T17:08:33;16.83;;;2.47;;
12135;SDS011;6131;56.420;15.548;2022-12-26T17:10:59;25.40;;;4.67;;
12135;SDS011;6131;56.420;15.548;2022-12-26T17:13:25;13.83;;;3.77;;
12135;SDS011;6131;56.420;15.548;2022-12-26T17:15:53;14.23;;;4.17;;
12135;SDS011;6131;56.420;15.548;2022-12-26T17:18:37;24.57;;;3.87;;
12135;SDS011;6131;56.420;15.548;2022-12-26T17:26:27;6.27;;;2.80;;
12135;SDS011;6131;56.420;15.548;2022-12-26T17:28:54;8.80;;;3.33;;
12135;SDS011;6131;56.420;15.548;2022-12-26T17:31:39;5.17;;;2.90;;
12135;SDS011;6131;56.420;15.548;2022-12-26T17:34:27;5.10;;;2.93;;
12135;SDS011;6131;56.420;15.548;2022-12-26T17:36:52;5.70;;;2.90;;
12135;SDS011;6131;56.420;15.548;2022-12-26T17:39:20;7.27;;;3.37;;
12135;SDS011;6131;56.420;15.548;2022-12-26T17:41:48;9.23;;;3.37;;
12135;SDS011;6131;56.420;15.548;2022-12-26T17:47:01;20.10;;;4.13;;
12135;SDS011;6131;56.420;15.548;2022-12-26T17:49:27;56.03;;;6.37;;
12135;SDS011;6131;56.420;15.548;2022-12-26T17:51:53;32.87;;;4.80;;
12135;SDS011;6131;56.420;15.548;2022-12-26T17:54:19;30.07;;;5.63;;
12135;SDS011;6131;56.420;15.548;2022-12-26T17:56:45;77.00;;;6.47;;
12135;SDS011;6131;56.420;15.548;2022-12-26T17:59:14;25.13;;;4.37;;
12135;SDS011;6131;56.420;15.548;2022-12-26T18:01:40;46.80;;;6.00;;
12135;SDS011;6131;56.420;15.548;2022-12-26T18:04:06;31.83;;;6.17;;
12135;SDS011;6131;56.420;15.548;2022-12-26T18:06:32;49.43;;;5.87;;
12135;SDS011;6131;56.420;15.548;2022-12-26T18:08:58;29.03;;;5.03;;
12135;SDS011;6131;56.420;15.548;2022-12-26T18:11:24;37.83;;;5.50;;
12135;SDS011;6131;56.420;15.548;2022-12-26T18:13:50;36.93;;;6.40;;
12135;SDS011;6131;56.420;15.548;2022-12-26T18:16:16;26.30;;;5.57;;
12135;SDS011;6131;56.420;15.548;2022-12-26T18:18:44;44.33;;;5.97;;
12135;SDS011;6131;56.420;15.548;2022-12-26T18:21:11;116.93;;;9.80;;
12135;SDS011;6131;56.420;15.548;2022-12-26T18:23:37;124.63;;;9.43;;
12135;SDS011;6131;56.420;15.548;2022-12-26T18:26:26;39.37;;;5.83;;
12135;SDS011;6131;56.420;15.548;2022-12-26T18:28:50;49.23;;;6.00;;
12135;SDS011;6131;56.420;15.548;2022-12-26T18:31:16;69.17;;;7.30;;
12135;SDS011;6131;56.420;15.548;2022-12-26T18:33:42;28.50;;;4.73;;
12135;SDS011;6131;56.420;15.548;2022-12-26T18:36:11;30.37;;;4.47;;
12135;SDS011;6131;56.420;15.548;2022-12-26T18:38:38;9.97;;;4.00;;
12135;SDS011;6131;56.420;15.548;2022-12-26T18:41:04;10.27;;;3.17;;
12135;SDS011;6131;56.420;15.548;2022-12-26T18:43:30;15.63;;;3.37;;